METAR Analyzer

一覧表示

Hello, Guest. (Login)

RJGG/NGO  -  名古屋/中部

観測日時
2021-01-27 01:00 (UTC) (42分前)
気温
13
露点
6
湿数
7
相対湿度
62.4%
QNH
1013hPa
推定現地気圧
1012.5hPa
推定海面気圧
1013.0hPa
体感温度
0.5
(無風時)
14.9
HI
12
気温前日比
+4
体感温度前日比
+0.8
HI前日比
+4.2
水平視程
>10000m
鉛直視程
データなし
雲底高度
No dense clouds
V/I
VMC (VFR)
RVR
No RVR data
卓越風
24kt from 320°
ガスト
No gust
降水
報告なし
その他の天気
報告なし
少しの雲 @ 2000ft AGL

RJGG 270100Z 32024KT 9999 FEW020 13/06 Q1013 NOSIG

RJNS/FSZ  -  静岡

観測日時
2021-01-27 01:00 (UTC) (42分前)
気温
15
露点
15
湿数
0
相対湿度
100%
QNH
1008hPa
推定現地気圧
992.3hPa
推定海面気圧
1007.9hPa
体感温度
6.6
(無風時)
17.1
HI
15.2
気温前日比
+4
体感温度前日比
+1.6
HI前日比
+6
水平視程
>10000m
鉛直視程
データなし
雲底高度
No dense clouds
V/I
VMC (VFR)
RVR
No RVR data
卓越風
7kt from 240° (200° ~ 270°)
ガスト
No gust
降水
報告なし
その他の天気
報告なし
少しの雲 @ 300ft AGL

RJNS 270100Z 24007KT 200V270 9999 FEW003 15/15 Q1008

74.6msec